sensor_id;sensor_type;location;lat;lon;timestamp;P1;durP1;ratioP1;P2;durP2;ratioP2
21010;SDS011;10663;42.714;23.274;2022-09-24T00:01:21;11.00;;;7.67;;
21010;SDS011;10663;42.714;23.274;2022-09-24T00:02:53;12.65;;;8.52;;
21010;SDS011;10663;42.714;23.274;2022-09-24T00:04:25;13.45;;;8.32;;
21010;SDS011;10663;42.714;23.274;2022-09-24T00:06:01;11.35;;;7.82;;
21010;SDS011;10663;42.714;23.274;2022-09-24T00:07:33;11.35;;;8.07;;
21010;SDS011;10663;42.714;23.274;2022-09-24T00:09:03;11.57;;;8.25;;
21010;SDS011;10663;42.714;23.274;2022-09-24T00:10:35;9.18;;;7.40;;
21010;SDS011;10663;42.714;23.274;2022-09-24T00:12:10;10.77;;;7.50;;
21010;SDS011;10663;42.714;23.274;2022-09-24T00:13:42;10.07;;;7.10;;
21010;SDS011;10663;42.714;23.274;2022-09-24T00:15:13;10.07;;;7.50;;
21010;SDS011;10663;42.714;23.274;2022-09-24T00:16:44;9.98;;;7.28;;
21010;SDS011;10663;42.714;23.274;2022-09-24T00:18:15;9.15;;;7.40;;
21010;SDS011;10663;42.714;23.274;2022-09-24T00:19:47;9.05;;;7.38;;
21010;SDS011;10663;42.714;23.274;2022-09-24T00:21:19;8.80;;;7.00;;
21010;SDS011;10663;42.714;23.274;2022-09-24T00:22:54;9.70;;;7.20;;
21010;SDS011;10663;42.714;23.274;2022-09-24T00:24:25;11.02;;;7.82;;
21010;SDS011;10663;42.714;23.274;2022-09-24T00:26:15;7.97;;;6.95;;
21010;SDS011;10663;42.714;23.274;2022-09-24T00:28:04;9.90;;;7.55;;
21010;SDS011;10663;42.714;23.274;2022-09-24T00:29:35;8.75;;;7.28;;
21010;SDS011;10663;42.714;23.274;2022-09-24T00:31:06;9.32;;;7.30;;
21010;SDS011;10663;42.714;23.274;2022-09-24T00:32:37;10.88;;;7.55;;
21010;SDS011;10663;42.714;23.274;2022-09-24T00:34:08;9.90;;;7.38;;
21010;SDS011;10663;42.714;23.274;2022-09-24T00:35:39;10.23;;;7.53;;
21010;SDS011;10663;42.714;23.274;2022-09-24T00:37:10;10.68;;;7.50;;
21010;SDS011;10663;42.714;23.274;2022-09-24T00:38:41;8.65;;;7.00;;
21010;SDS011;10663;42.714;23.274;2022-09-24T00:40:12;9.60;;;7.30;;
21010;SDS011;10663;42.714;23.274;2022-09-24T00:41:45;9.98;;;7.47;;
21010;SDS011;10663;42.714;23.274;2022-09-24T00:45:07;9.90;;;8.27;;
21010;SDS011;10663;42.714;23.274;2022-09-24T00:46:40;9.02;;;7.40;;
21010;SDS011;10663;42.714;23.274;2022-09-24T00:48:13;9.63;;;7.38;;
21010;SDS011;10663;42.714;23.274;2022-09-24T00:49:44;9.88;;;7.45;;
21010;SDS011;10663;42.714;23.274;2022-09-24T00:51:18;10.60;;;7.40;;
21010;SDS011;10663;42.714;23.274;2022-09-24T00:53:02;9.68;;;7.40;;
21010;SDS011;10663;42.714;23.274;2022-09-24T00:54:38;10.83;;;7.60;;
21010;SDS011;10663;42.714;23.274;2022-09-24T00:56:13;11.02;;;8.40;;
21010;SDS011;10663;42.714;23.274;2022-09-24T00:57:45;9.27;;;7.35;;
21010;SDS011;10663;42.714;23.274;2022-09-24T00:59:20;11.27;;;7.97;;
21010;SDS011;10663;42.714;23.274;2022-09-24T01:00:55;10.18;;;7.68;;
21010;SDS011;10663;42.714;23.274;2022-09-24T01:02:31;11.30;;;8.15;;
21010;SDS011;10663;42.714;23.274;2022-09-24T01:04:04;9.38;;;7.72;;
21010;SDS011;10663;42.714;23.274;2022-09-24T01:05:36;9.50;;;7.47;;
21010;SDS011;10663;42.714;23.274;2022-09-24T01:07:08;10.18;;;8.18;;
21010;SDS011;10663;42.714;23.274;2022-09-24T01:08:39;10.25;;;8.02;;
21010;SDS011;10663;42.714;23.274;2022-09-24T01:10:10;11.00;;;8.40;;
21010;SDS011;10663;42.714;23.274;2022-09-24T01:14:00;9.15;;;7.50;;
21010;SDS011;10663;42.714;23.274;2022-09-24T01:16:06;8.50;;;7.15;;
21010;SDS011;10663;42.714;23.274;2022-09-24T01:17:51;8.80;;;7.50;;
21010;SDS011;10663;42.714;23.274;2022-09-24T01:21:46;12.60;;;8.63;;
21010;SDS011;10663;42.714;23.274;2022-09-24T01:30:51;8.07;;;6.97;;
21010;SDS011;10663;42.714;23.274;2022-09-24T01:32:43;10.88;;;7.10;;
21010;SDS011;10663;42.714;23.274;2022-09-24T01:34:26;8.18;;;6.97;;
21010;SDS011;10663;42.714;23.274;2022-09-24T01:36:01;8.05;;;7.03;;
21010;SDS011;10663;42.714;23.274;2022-09-24T01:37:38;8.20;;;7.23;;
21010;SDS011;10663;42.714;23.274;2022-09-24T01:39:12;8.57;;;6.90;;
21010;SDS011;10663;42.714;23.274;2022-09-24T01:40:44;9.52;;;7.65;;
21010;SDS011;10663;42.714;23.274;2022-09-24T01:42:16;9.68;;;7.30;;
21010;SDS011;10663;42.714;23.274;2022-09-24T01:43:49;9.48;;;7.65;;
21010;SDS011;10663;42.714;23.274;2022-09-24T01:45:21;8.90;;;7.50;;
21010;SDS011;10663;42.714;23.274;2022-09-24T01:46:51;8.23;;;7.13;;
21010;SDS011;10663;42.714;23.274;2022-09-24T01:48:26;9.25;;;7.30;;
21010;SDS011;10663;42.714;23.274;2022-09-24T01:49:58;9.10;;;7.70;;
21010;SDS011;10663;42.714;23.274;2022-09-24T01:51:48;10.07;;;7.97;;
21010;SDS011;10663;42.714;23.274;2022-09-24T01:53:24;10.20;;;7.55;;
21010;SDS011;10663;42.714;23.274;2022-09-24T01:54:57;9.45;;;7.60;;
21010;SDS011;10663;42.714;23.274;2022-09-24T01:56:41;9.25;;;7.50;;
21010;SDS011;10663;42.714;23.274;2022-09-24T01:58:21;9.80;;;7.63;;
21010;SDS011;10663;42.714;23.274;2022-09-24T02:00:04;10.45;;;8.20;;
21010;SDS011;10663;42.714;23.274;2022-09-24T02:04:04;9.38;;;8.35;;
21010;SDS011;10663;42.714;23.274;2022-09-24T02:05:41;9.68;;;8.15;;
21010;SDS011;10663;42.714;23.274;2022-09-24T02:07:22;11.23;;;7.97;;
21010;SDS011;10663;42.714;23.274;2022-09-24T02:08:59;9.32;;;7.70;;
21010;SDS011;10663;42.714;23.274;2022-09-24T02:10:31;9.10;;;8.10;;
21010;SDS011;10663;42.714;23.274;2022-09-24T02:12:10;10.52;;;8.82;;
21010;SDS011;10663;42.714;23.274;2022-09-24T02:14:08;11.23;;;8.00;;
21010;SDS011;10663;42.714;23.274;2022-09-24T02:15:44;10.30;;;8.05;;
21010;SDS011;10663;42.714;23.274;2022-09-24T02:17:19;8.82;;;7.10;;
21010;SDS011;10663;42.714;23.274;2022-09-24T02:18:54;7.80;;;6.47;;
21010;SDS011;10663;42.714;23.274;2022-09-24T02:20:28;8.13;;;6.85;;
21010;SDS011;10663;42.714;23.274;2022-09-24T02:22:01;7.35;;;6.18;;
21010;SDS011;10663;42.714;23.274;2022-09-24T02:23:35;8.63;;;6.57;;
21010;SDS011;10663;42.714;23.274;2022-09-24T02:25:11;8.13;;;7.05;;
21010;SDS011;10663;42.714;23.274;2022-09-24T02:26:46;7.80;;;6.65;;
21010;SDS011;10663;42.714;23.274;2022-09-24T02:28:17;9.52;;;7.25;;
21010;SDS011;10663;42.714;23.274;2022-09-24T02:29:49;8.40;;;6.57;;
21010;SDS011;10663;42.714;23.274;2022-09-24T02:31:24;8.98;;;6.35;;
21010;SDS011;10663;42.714;23.274;2022-09-24T02:33:08;7.80;;;6.70;;
21010;SDS011;10663;42.714;23.274;2022-09-24T02:35:04;7.68;;;6.65;;
21010;SDS011;10663;42.714;23.274;2022-09-24T02:36:37;8.30;;;7.40;;
21010;SDS011;10663;42.714;23.274;2022-09-24T02:38:16;8.82;;;7.40;;
21010;SDS011;10663;42.714;23.274;2022-09-24T02:39:48;9.75;;;7.10;;
21010;SDS011;10663;42.714;23.274;2022-09-24T02:41:20;8.98;;;7.32;;
21010;SDS011;10663;42.714;23.274;2022-09-24T02:42:55;9.63;;;7.68;;
21010;SDS011;10663;42.714;23.274;2022-09-24T02:44:25;9.55;;;7.70;;
21010;SDS011;10663;42.714;23.274;2022-09-24T02:45:56;8.18;;;7.15;;
21010;SDS011;10663;42.714;23.274;2022-09-24T02:47:27;7.78;;;6.80;;
21010;SDS011;10663;42.714;23.274;2022-09-24T02:48:58;8.02;;;7.03;;
21010;SDS011;10663;42.714;23.274;2022-09-24T02:50:29;8.52;;;6.93;;
21010;SDS011;10663;42.714;23.274;2022-09-24T02:52:00;11.18;;;7.35;;
21010;SDS011;10663;42.714;23.274;2022-09-24T02:53:31;11.93;;;7.45;;
21010;SDS011;10663;42.714;23.274;2022-09-24T02:55:02;8.90;;;7.70;;
21010;SDS011;10663;42.714;23.274;2022-09-24T02:56:34;8.75;;;7.68;;
21010;SDS011;10663;42.714;23.274;2022-09-24T02:58:05;9.90;;;7.68;;
21010;SDS011;10663;42.714;23.274;2022-09-24T02:59:36;9.07;;;8.00;;
21010;SDS011;10663;42.714;23.274;2022-09-24T03:01:07;9.52;;;7.65;;
21010;SDS011;10663;42.714;23.274;2022-09-24T03:02:38;8.52;;;7.13;;
21010;SDS011;10663;42.714;23.274;2022-09-24T03:04:09;7.70;;;6.40;;
21010;SDS011;10663;42.714;23.274;2022-09-24T03:05:40;8.55;;;7.15;;
21010;SDS011;10663;42.714;23.274;2022-09-24T03:07:11;8.60;;;7.50;;
21010;SDS011;10663;42.714;23.274;2022-09-24T03:08:43;8.20;;;7.40;;
21010;SDS011;10663;42.714;23.274;2022-09-24T03:10:14;8.85;;;7.55;;
21010;SDS011;10663;42.714;23.274;2022-09-24T03:11:45;9.17;;;7.87;;
21010;SDS011;10663;42.714;23.274;2022-09-24T03:13:17;10.75;;;7.90;;
21010;SDS011;10663;42.714;23.274;2022-09-24T03:14:48;9.20;;;8.10;;
21010;SDS011;10663;42.714;23.274;2022-09-24T03:16:19;9.98;;;8.43;;
21010;SDS011;10663;42.714;23.274;2022-09-24T03:17:50;11.15;;;8.00;;
21010;SDS011;10663;42.714;23.274;2022-09-24T03:19:20;11.37;;;8.10;;
21010;SDS011;10663;42.714;23.274;2022-09-24T03:20:59;9.00;;;8.07;;
21010;SDS011;10663;42.714;23.274;2022-09-24T03:22:31;11.52;;;8.13;;
21010;SDS011;10663;42.714;23.274;2022-09-24T03:24:02;8.55;;;7.25;;
21010;SDS011;10663;42.714;23.274;2022-09-24T03:25:33;9.93;;;7.65;;
21010;SDS011;10663;42.714;23.274;2022-09-24T03:27:04;8.95;;;7.68;;
21010;SDS011;10663;42.714;23.274;2022-09-24T03:28:35;8.68;;;7.63;;
21010;SDS011;10663;42.714;23.274;2022-09-24T03:30:06;9.85;;;8.23;;
21010;SDS011;10663;42.714;23.274;2022-09-24T03:31:56;10.52;;;8.35;;
21010;SDS011;10663;42.714;23.274;2022-09-24T03:33:43;12.10;;;9.07;;
21010;SDS011;10663;42.714;23.274;2022-09-24T03:35:15;11.48;;;9.00;;
21010;SDS011;10663;42.714;23.274;2022-09-24T03:36:46;10.32;;;7.45;;
21010;SDS011;10663;42.714;23.274;2022-09-24T03:38:17;9.55;;;8.25;;
21010;SDS011;10663;42.714;23.274;2022-09-24T03:39:48;10.13;;;8.32;;
21010;SDS011;10663;42.714;23.274;2022-09-24T03:41:19;9.70;;;8.00;;
21010;SDS011;10663;42.714;23.274;2022-09-24T03:42:50;9.67;;;8.60;;
21010;SDS011;10663;42.714;23.274;2022-09-24T03:44:21;10.60;;;8.60;;
21010;SDS011;10663;42.714;23.274;2022-09-24T03:45:51;10.77;;;8.47;;
21010;SDS011;10663;42.714;23.274;2022-09-24T03:47:23;11.30;;;8.77;;
21010;SDS011;10663;42.714;23.274;2022-09-24T03:48:54;9.10;;;7.72;;
21010;SDS011;10663;42.714;23.274;2022-09-24T03:50:27;9.63;;;7.90;;
21010;SDS011;10663;42.714;23.274;2022-09-24T03:51:58;11.75;;;8.40;;
21010;SDS011;10663;42.714;23.274;2022-09-24T03:53:28;11.10;;;8.02;;
21010;SDS011;10663;42.714;23.274;2022-09-24T03:54:59;11.32;;;8.40;;
21010;SDS011;10663;42.714;23.274;2022-09-24T03:56:30;10.50;;;7.97;;
21010;SDS011;10663;42.714;23.274;2022-09-24T03:58:01;11.88;;;8.80;;
21010;SDS011;10663;42.714;23.274;2022-09-24T03:59:32;12.15;;;8.35;;
21010;SDS011;10663;42.714;23.274;2022-09-24T04:01:06;11.10;;;7.93;;
21010;SDS011;10663;42.714;23.274;2022-09-24T04:02:39;11.65;;;8.35;;
21010;SDS011;10663;42.714;23.274;2022-09-24T04:04:10;9.98;;;8.43;;
21010;SDS011;10663;42.714;23.274;2022-09-24T04:05:44;11.85;;;9.25;;
21010;SDS011;10663;42.714;23.274;2022-09-24T04:07:16;11.02;;;9.07;;
21010;SDS011;10663;42.714;23.274;2022-09-24T04:08:47;11.63;;;9.33;;
21010;SDS011;10663;42.714;23.274;2022-09-24T04:10:17;13.80;;;10.83;;
21010;SDS011;10663;42.714;23.274;2022-09-24T04:11:48;11.98;;;9.57;;
21010;SDS011;10663;42.714;23.274;2022-09-24T04:13:21;10.63;;;8.60;;
21010;SDS011;10663;42.714;23.274;2022-09-24T04:14:52;10.87;;;8.17;;
21010;SDS011;10663;42.714;23.274;2022-09-24T04:16:23;9.90;;;8.20;;
21010;SDS011;10663;42.714;23.274;2022-09-24T04:17:55;10.65;;;8.20;;
21010;SDS011;10663;42.714;23.274;2022-09-24T04:19:27;11.10;;;7.45;;
21010;SDS011;10663;42.714;23.274;2022-09-24T04:20:58;9.35;;;7.55;;
21010;SDS011;10663;42.714;23.274;2022-09-24T04:22:30;10.52;;;7.80;;
21010;SDS011;10663;42.714;23.274;2022-09-24T04:24:00;9.00;;;7.97;;
21010;SDS011;10663;42.714;23.274;2022-09-24T04:25:31;12.75;;;8.65;;
21010;SDS011;10663;42.714;23.274;2022-09-24T04:27:03;9.05;;;7.53;;
21010;SDS011;10663;42.714;23.274;2022-09-24T04:28:33;10.07;;;8.00;;
21010;SDS011;10663;42.714;23.274;2022-09-24T04:30:04;9.70;;;7.90;;
21010;SDS011;10663;42.714;23.274;2022-09-24T04:31:36;9.30;;;7.78;;
21010;SDS011;10663;42.714;23.274;2022-09-24T04:33:07;11.05;;;8.38;;
21010;SDS011;10663;42.714;23.274;2022-09-24T04:34:38;11.00;;;8.50;;
21010;SDS011;10663;42.714;23.274;2022-09-24T04:36:09;12.07;;;8.82;;
21010;SDS011;10663;42.714;23.274;2022-09-24T04:37:40;10.90;;;8.48;;
21010;SDS011;10663;42.714;23.274;2022-09-24T04:39:12;10.27;;;8.50;;
21010;SDS011;10663;42.714;23.274;2022-09-24T04:40:43;12.95;;;8.27;;
21010;SDS011;10663;42.714;23.274;2022-09-24T04:42:17;10.75;;;8.48;;
21010;SDS011;10663;42.714;23.274;2022-09-24T04:43:48;11.75;;;9.13;;
21010;SDS011;10663;42.714;23.274;2022-09-24T04:45:20;14.13;;;9.00;;
21010;SDS011;10663;42.714;23.274;2022-09-24T04:46:51;12.43;;;9.02;;
21010;SDS011;10663;42.714;23.274;2022-09-24T04:48:22;10.83;;;8.10;;
21010;SDS011;10663;42.714;23.274;2022-09-24T04:49:53;14.25;;;9.07;;
21010;SDS011;10663;42.714;23.274;2022-09-24T04:51:24;14.43;;;8.70;;
21010;SDS011;10663;42.714;23.274;2022-09-24T04:52:55;13.60;;;8.60;;
21010;SDS011;10663;42.714;23.274;2022-09-24T04:54:26;13.13;;;9.00;;
21010;SDS011;10663;42.714;23.274;2022-09-24T04:55:59;14.48;;;10.02;;
21010;SDS011;10663;42.714;23.274;2022-09-24T04:57:30;12.25;;;9.25;;
21010;SDS011;10663;42.714;23.274;2022-09-24T04:59:05;12.32;;;9.27;;
21010;SDS011;10663;42.714;23.274;2022-09-24T05:00:36;9.73;;;8.17;;
21010;SDS011;10663;42.714;23.274;2022-09-24T05:02:08;11.85;;;8.40;;
21010;SDS011;10663;42.714;23.274;2022-09-24T05:03:38;11.75;;;8.68;;
21010;SDS011;10663;42.714;23.274;2022-09-24T05:05:09;12.20;;;9.23;;
21010;SDS011;10663;42.714;23.274;2022-09-24T05:06:41;13.60;;;9.80;;
21010;SDS011;10663;42.714;23.274;2022-09-24T05:08:12;13.38;;;9.40;;
21010;SDS011;10663;42.714;23.274;2022-09-24T05:09:44;16.45;;;11.07;;
21010;SDS011;10663;42.714;23.274;2022-09-24T05:11:14;19.83;;;12.60;;
21010;SDS011;10663;42.714;23.274;2022-09-24T05:12:45;14.17;;;9.37;;
21010;SDS011;10663;42.714;23.274;2022-09-24T05:14:16;14.30;;;10.17;;
21010;SDS011;10663;42.714;23.274;2022-09-24T05:15:47;14.90;;;10.60;;
21010;SDS011;10663;42.714;23.274;2022-09-24T05:17:18;13.50;;;9.93;;
21010;SDS011;10663;42.714;23.274;2022-09-24T05:18:49;15.25;;;11.52;;
21010;SDS011;10663;42.714;23.274;2022-09-24T05:20:20;16.27;;;10.50;;
21010;SDS011;10663;42.714;23.274;2022-09-24T05:21:51;13.27;;;10.52;;
21010;SDS011;10663;42.714;23.274;2022-09-24T05:23:22;16.70;;;10.70;;
21010;SDS011;10663;42.714;23.274;2022-09-24T05:24:53;18.58;;;10.70;;
21010;SDS011;10663;42.714;23.274;2022-09-24T05:26:24;15.90;;;11.48;;
21010;SDS011;10663;42.714;23.274;2022-09-24T05:28:13;15.50;;;10.57;;
21010;SDS011;10663;42.714;23.274;2022-09-24T05:29:44;15.13;;;10.98;;
21010;SDS011;10663;42.714;23.274;2022-09-24T05:31:15;16.33;;;10.27;;
21010;SDS011;10663;42.714;23.274;2022-09-24T05:32:46;17.17;;;12.18;;
21010;SDS011;10663;42.714;23.274;2022-09-24T05:34:21;15.95;;;11.15;;
21010;SDS011;10663;42.714;23.274;2022-09-24T05:35:55;12.40;;;9.80;;
21010;SDS011;10663;42.714;23.274;2022-09-24T05:37:29;15.88;;;10.32;;
21010;SDS011;10663;42.714;23.274;2022-09-24T05:39:00;16.52;;;11.52;;
21010;SDS011;10663;42.714;23.274;2022-09-24T05:40:31;16.55;;;11.77;;
21010;SDS011;10663;42.714;23.274;2022-09-24T05:42:17;18.48;;;12.40;;
21010;SDS011;10663;42.714;23.274;2022-09-24T05:43:48;17.85;;;13.10;;
21010;SDS011;10663;42.714;23.274;2022-09-24T05:45:19;18.63;;;13.90;;
21010;SDS011;10663;42.714;23.274;2022-09-24T05:46:50;18.02;;;14.63;;
21010;SDS011;10663;42.714;23.274;2022-09-24T05:48:21;18.30;;;13.82;;
21010;SDS011;10663;42.714;23.274;2022-09-24T05:49:52;19.25;;;13.77;;
21010;SDS011;10663;42.714;23.274;2022-09-24T05:51:23;20.37;;;13.30;;
21010;SDS011;10663;42.714;23.274;2022-09-24T05:52:54;19.03;;;13.33;;
21010;SDS011;10663;42.714;23.274;2022-09-24T05:54:25;18.17;;;13.88;;
21010;SDS011;10663;42.714;23.274;2022-09-24T05:55:56;20.55;;;14.48;;
21010;SDS011;10663;42.714;23.274;2022-09-24T05:57:28;21.02;;;14.43;;
21010;SDS011;10663;42.714;23.274;2022-09-24T05:58:58;20.87;;;14.00;;
21010;SDS011;10663;42.714;23.274;2022-09-24T06:00:32;21.25;;;14.27;;
21010;SDS011;10663;42.714;23.274;2022-09-24T06:02:05;19.88;;;15.02;;
21010;SDS011;10663;42.714;23.274;2022-09-24T06:03:36;19.77;;;14.07;;
21010;SDS011;10663;42.714;23.274;2022-09-24T06:05:07;17.83;;;13.68;;
21010;SDS011;10663;42.714;23.274;2022-09-24T06:06:38;17.65;;;13.07;;
21010;SDS011;10663;42.714;23.274;2022-09-24T06:08:09;17.13;;;12.17;;
21010;SDS011;10663;42.714;23.274;2022-09-24T06:09:41;16.75;;;12.40;;
21010;SDS011;10663;42.714;23.274;2022-09-24T06:11:12;17.60;;;12.80;;
21010;SDS011;10663;42.714;23.274;2022-09-24T06:12:43;17.73;;;12.38;;
21010;SDS011;10663;42.714;23.274;2022-09-24T06:14:14;16.98;;;11.93;;
21010;SDS011;10663;42.714;23.274;2022-09-24T06:15:45;16.08;;;11.77;;
21010;SDS011;10663;42.714;23.274;2022-09-24T06:17:16;16.88;;;12.43;;
21010;SDS011;10663;42.714;23.274;2022-09-24T06:18:47;15.05;;;11.38;;
21010;SDS011;10663;42.714;23.274;2022-09-24T06:20:18;13.90;;;11.40;;
21010;SDS011;10663;42.714;23.274;2022-09-24T06:21:49;15.77;;;10.98;;
21010;SDS011;10663;42.714;23.274;2022-09-24T06:23:19;17.60;;;11.77;;
21010;SDS011;10663;42.714;23.274;2022-09-24T06:24:50;13.50;;;11.02;;
21010;SDS011;10663;42.714;23.274;2022-09-24T06:26:21;14.13;;;10.93;;
21010;SDS011;10663;42.714;23.274;2022-09-24T06:27:53;14.02;;;11.52;;
21010;SDS011;10663;42.714;23.274;2022-09-24T06:29:31;13.68;;;10.40;;
21010;SDS011;10663;42.714;23.274;2022-09-24T06:31:03;14.35;;;10.98;;
21010;SDS011;10663;42.714;23.274;2022-09-24T06:32:35;14.98;;;10.13;;
21010;SDS011;10663;42.714;23.274;2022-09-24T06:34:05;13.43;;;10.48;;
21010;SDS011;10663;42.714;23.274;2022-09-24T06:35:37;12.93;;;10.00;;
21010;SDS011;10663;42.714;23.274;2022-09-24T06:37:09;12.57;;;9.93;;
21010;SDS011;10663;42.714;23.274;2022-09-24T06:38:40;12.25;;;9.88;;
21010;SDS011;10663;42.714;23.274;2022-09-24T06:40:11;14.13;;;10.80;;
21010;SDS011;10663;42.714;23.274;2022-09-24T06:41:41;14.67;;;10.73;;
21010;SDS011;10663;42.714;23.274;2022-09-24T06:43:13;14.03;;;10.73;;
21010;SDS011;10663;42.714;23.274;2022-09-24T06:44:44;13.43;;;11.35;;
21010;SDS011;10663;42.714;23.274;2022-09-24T06:46:15;14.02;;;11.50;;
21010;SDS011;10663;42.714;23.274;2022-09-24T06:47:56;17.25;;;12.75;;
21010;SDS011;10663;42.714;23.274;2022-09-24T06:49:29;14.30;;;11.23;;
21010;SDS011;10663;42.714;23.274;2022-09-24T06:51:02;14.75;;;11.43;;
21010;SDS011;10663;42.714;23.274;2022-09-24T06:52:34;12.57;;;10.90;;
21010;SDS011;10663;42.714;23.274;2022-09-24T06:54:04;17.55;;;12.27;;
21010;SDS011;10663;42.714;23.274;2022-09-24T06:55:35;15.55;;;12.35;;
21010;SDS011;10663;42.714;23.274;2022-09-24T06:57:07;14.77;;;12.80;;
21010;SDS011;10663;42.714;23.274;2022-09-24T06:58:38;14.35;;;11.73;;
21010;SDS011;10663;42.714;23.274;2022-09-24T07:00:09;13.15;;;11.32;;
21010;SDS011;10663;42.714;23.274;2022-09-24T07:01:41;14.93;;;10.40;;
21010;SDS011;10663;42.714;23.274;2022-09-24T07:03:13;14.63;;;10.50;;
21010;SDS011;10663;42.714;23.274;2022-09-24T07:04:45;16.02;;;10.43;;
21010;SDS011;10663;42.714;23.274;2022-09-24T07:06:16;13.30;;;9.80;;
21010;SDS011;10663;42.714;23.274;2022-09-24T07:07:47;15.40;;;9.18;;
21010;SDS011;10663;42.714;23.274;2022-09-24T07:09:18;12.75;;;9.85;;
21010;SDS011;10663;42.714;23.274;2022-09-24T07:10:49;13.98;;;10.40;;
21010;SDS011;10663;42.714;23.274;2022-09-24T07:12:21;12.80;;;9.97;;
21010;SDS011;10663;42.714;23.274;2022-09-24T07:13:53;16.88;;;11.48;;
21010;SDS011;10663;42.714;23.274;2022-09-24T07:15:23;14.10;;;11.90;;
21010;SDS011;10663;42.714;23.274;2022-09-24T07:16:54;13.35;;;11.30;;
21010;SDS011;10663;42.714;23.274;2022-09-24T07:18:25;13.93;;;11.43;;
21010;SDS011;10663;42.714;23.274;2022-09-24T07:19:56;13.30;;;11.90;;
21010;SDS011;10663;42.714;23.274;2022-09-24T07:21:27;13.77;;;12.30;;
21010;SDS011;10663;42.714;23.274;2022-09-24T07:22:58;15.40;;;12.20;;
21010;SDS011;10663;42.714;23.274;2022-09-24T07:24:29;14.43;;;11.73;;
21010;SDS011;10663;42.714;23.274;2022-09-24T07:26:00;14.63;;;11.45;;
21010;SDS011;10663;42.714;23.274;2022-09-24T07:27:31;15.45;;;11.70;;
21010;SDS011;10663;42.714;23.274;2022-09-24T07:29:02;14.98;;;12.13;;
21010;SDS011;10663;42.714;23.274;2022-09-24T07:30:34;16.17;;;11.60;;
21010;SDS011;10663;42.714;23.274;2022-09-24T07:32:05;17.63;;;12.32;;
21010;SDS011;10663;42.714;23.274;2022-09-24T07:33:36;14.77;;;11.65;;
21010;SDS011;10663;42.714;23.274;2022-09-24T07:35:07;16.25;;;11.65;;
21010;SDS011;10663;42.714;23.274;2022-09-24T07:36:39;15.63;;;11.52;;
21010;SDS011;10663;42.714;23.274;2022-09-24T07:38:11;13.23;;;11.00;;
21010;SDS011;10663;42.714;23.274;2022-09-24T07:39:41;12.83;;;10.97;;
21010;SDS011;10663;42.714;23.274;2022-09-24T07:41:14;18.95;;;12.75;;
21010;SDS011;10663;42.714;23.274;2022-09-24T07:42:48;12.93;;;10.80;;
21010;SDS011;10663;42.714;23.274;2022-09-24T07:44:19;13.02;;;11.60;;
21010;SDS011;10663;42.714;23.274;2022-09-24T07:45:51;13.18;;;10.93;;
21010;SDS011;10663;42.714;23.274;2022-09-24T07:47:22;17.60;;;13.98;;
21010;SDS011;10663;42.714;23.274;2022-09-24T07:48:53;17.35;;;12.85;;
21010;SDS011;10663;42.714;23.274;2022-09-24T07:50:27;15.65;;;13.00;;
21010;SDS011;10663;42.714;23.274;2022-09-24T07:52:00;17.57;;;13.73;;
21010;SDS011;10663;42.714;23.274;2022-09-24T07:53:31;17.98;;;14.10;;
21010;SDS011;10663;42.714;23.274;2022-09-24T07:55:02;18.67;;;13.05;;
21010;SDS011;10663;42.714;23.274;2022-09-24T07:56:33;16.52;;;13.05;;
21010;SDS011;10663;42.714;23.274;2022-09-24T07:58:05;15.52;;;12.80;;
21010;SDS011;10663;42.714;23.274;2022-09-24T07:59:39;14.90;;;12.43;;
21010;SDS011;10663;42.714;23.274;2022-09-24T08:01:10;17.42;;;13.32;;
21010;SDS011;10663;42.714;23.274;2022-09-24T08:02:42;17.52;;;13.20;;
21010;SDS011;10663;42.714;23.274;2022-09-24T08:04:17;15.52;;;12.10;;
21010;SDS011;10663;42.714;23.274;2022-09-24T08:05:48;15.35;;;12.13;;
21010;SDS011;10663;42.714;23.274;2022-09-24T08:07:19;15.50;;;12.20;;
21010;SDS011;10663;42.714;23.274;2022-09-24T08:08:50;14.05;;;11.82;;
21010;SDS011;10663;42.714;23.274;2022-09-24T08:10:26;13.40;;;10.90;;
21010;SDS011;10663;42.714;23.274;2022-09-24T08:11:57;15.35;;;11.57;;
21010;SDS011;10663;42.714;23.274;2022-09-24T08:13:28;15.23;;;11.55;;
21010;SDS011;10663;42.714;23.274;2022-09-24T08:14:59;14.35;;;11.23;;
21010;SDS011;10663;42.714;23.274;2022-09-24T08:16:30;16.60;;;11.57;;
21010;SDS011;10663;42.714;23.274;2022-09-24T08:18:01;13.38;;;11.05;;
21010;SDS011;10663;42.714;23.274;2022-09-24T08:19:35;12.13;;;10.90;;
21010;SDS011;10663;42.714;23.274;2022-09-24T08:21:07;14.82;;;10.90;;
21010;SDS011;10663;42.714;23.274;2022-09-24T08:22:41;15.77;;;10.88;;
21010;SDS011;10663;42.714;23.274;2022-09-24T08:24:12;14.48;;;10.73;;
21010;SDS011;10663;42.714;23.274;2022-09-24T08:25:42;13.47;;;10.60;;
21010;SDS011;10663;42.714;23.274;2022-09-24T08:27:13;15.23;;;10.63;;
21010;SDS011;10663;42.714;23.274;2022-09-24T08:28:44;15.10;;;11.13;;
21010;SDS011;10663;42.714;23.274;2022-09-24T08:30:18;13.93;;;11.15;;
21010;SDS011;10663;42.714;23.274;2022-09-24T08:31:50;12.80;;;10.63;;
21010;SDS011;10663;42.714;23.274;2022-09-24T08:33:22;14.75;;;10.88;;
21010;SDS011;10663;42.714;23.274;2022-09-24T08:34:53;13.25;;;10.60;;
21010;SDS011;10663;42.714;23.274;2022-09-24T08:36:24;14.38;;;10.98;;
21010;SDS011;10663;42.714;23.274;2022-09-24T08:37:54;14.20;;;10.50;;
21010;SDS011;10663;42.714;23.274;2022-09-24T08:39:25;17.37;;;11.37;;
21010;SDS011;10663;42.714;23.274;2022-09-24T08:42:47;14.00;;;10.23;;
21010;SDS011;10663;42.714;23.274;2022-09-24T08:44:26;14.02;;;10.60;;
21010;SDS011;10663;42.714;23.274;2022-09-24T08:46:30;12.77;;;9.32;;
21010;SDS011;10663;42.714;23.274;2022-09-24T08:48:24;13.68;;;9.88;;
21010;SDS011;10663;42.714;23.274;2022-09-24T08:50:01;13.25;;;9.30;;
21010;SDS011;10663;42.714;23.274;2022-09-24T08:51:34;13.77;;;10.23;;
21010;SDS011;10663;42.714;23.274;2022-09-24T08:55:16;10.68;;;8.60;;
21010;SDS011;10663;42.714;23.274;2022-09-24T08:56:51;9.98;;;8.45;;
21010;SDS011;10663;42.714;23.274;2022-09-24T09:00:31;13.45;;;9.60;;
21010;SDS011;10663;42.714;23.274;2022-09-24T09:08:33;10.73;;;8.63;;
21010;SDS011;10663;42.714;23.274;2022-09-24T09:10:17;11.73;;;8.23;;
21010;SDS011;10663;42.714;23.274;2022-09-24T09:11:58;10.93;;;7.70;;
21010;SDS011;10663;42.714;23.274;2022-09-24T09:13:37;13.15;;;8.30;;
21010;SDS011;10663;42.714;23.274;2022-09-24T09:15:23;10.23;;;8.17;;
21010;SDS011;10663;42.714;23.274;2022-09-24T09:16:58;9.05;;;7.60;;
21010;SDS011;10663;42.714;23.274;2022-09-24T09:18:36;13.73;;;8.60;;
21010;SDS011;10663;42.714;23.274;2022-09-24T09:20:16;11.05;;;7.60;;
21010;SDS011;10663;42.714;23.274;2022-09-24T09:21:54;11.57;;;7.20;;
21010;SDS011;10663;42.714;23.274;2022-09-24T09:23:35;10.82;;;7.75;;
21010;SDS011;10663;42.714;23.274;2022-09-24T09:25:24;10.35;;;7.43;;
21010;SDS011;10663;42.714;23.274;2022-09-24T09:26:57;9.82;;;7.28;;
21010;SDS011;10663;42.714;23.274;2022-09-24T09:28:31;10.23;;;6.80;;
21010;SDS011;10663;42.714;23.274;2022-09-24T09:30:03;9.30;;;6.67;;
21010;SDS011;10663;42.714;23.274;2022-09-24T09:31:44;8.73;;;6.07;;
21010;SDS011;10663;42.714;23.274;2022-09-24T09:35:46;7.60;;;5.97;;
21010;SDS011;10663;42.714;23.274;2022-09-24T09:37:43;7.53;;;5.28;;